createdAt,value
2018-11-05T00:01:42.396Z,0.13
2018-11-05T00:04:10.933Z,0.60
2018-11-05T00:06:39.466Z,0.40
2018-11-05T00:09:10.205Z,0.30
2018-11-05T00:11:38.734Z,0.63
2018-11-05T00:14:07.983Z,0.40
2018-11-05T00:16:36.666Z,0.20
2018-11-05T00:19:05.557Z,0.27
2018-11-05T00:21:34.087Z,0.40
2018-11-05T00:24:02.684Z,0.37
2018-11-05T00:26:31.200Z,0.30
2018-11-05T00:28:59.718Z,0.80
2018-11-05T00:31:28.294Z,0.40
2018-11-05T00:33:56.869Z,0.60
2018-11-05T00:36:25.389Z,0.47
2018-11-05T00:38:53.929Z,0.47
2018-11-05T00:41:22.470Z,0.70
2018-11-05T00:43:51.048Z,0.40
2018-11-05T00:46:19.609Z,0.27
2018-11-05T00:48:48.123Z,0.33
2018-11-05T00:51:16.667Z,0.10
2018-11-05T00:53:45.206Z,0.50
2018-11-05T00:56:13.749Z,0.20
2018-11-05T00:58:42.285Z,1.10
2018-11-05T01:01:10.863Z,0.37
2018-11-05T01:03:39.925Z,0.47
2018-11-05T01:06:08.448Z,0.47
2018-11-05T01:08:36.966Z,0.23
2018-11-05T01:11:05.915Z,0.40
2018-11-05T01:13:34.442Z,0.20
2018-11-05T01:16:02.954Z,0.37
2018-11-05T01:18:31.476Z,0.40
2018-11-05T01:21:00.001Z,0.40
2018-11-05T01:23:28.549Z,0.57
2018-11-05T01:25:57.123Z,0.43
2018-11-05T01:28:25.703Z,0.30
2018-11-05T01:30:54.249Z,0.47
2018-11-05T01:33:22.818Z,0.30
2018-11-05T01:35:51.335Z,0.27
2018-11-05T01:38:19.875Z,0.10
2018-11-05T01:40:48.406Z,0.40
2018-11-05T01:43:16.968Z,0.23
2018-11-05T01:45:45.521Z,0.37
2018-11-05T01:48:14.038Z,0.40
2018-11-05T01:50:42.563Z,0.47
2018-11-05T01:53:11.091Z,0.30
2018-11-05T01:55:39.604Z,0.20
2018-11-05T01:58:08.649Z,0.43
2018-11-05T02:00:37.172Z,0.37
2018-11-05T02:03:05.839Z,0.37
2018-11-05T02:05:34.372Z,0.10
2018-11-05T02:08:02.941Z,0.73
2018-11-05T02:10:31.576Z,1.47
2018-11-05T02:13:00.031Z,2.57
2018-11-05T02:15:28.598Z,2.37
2018-11-05T02:17:57.149Z,1.50
2018-11-05T02:20:25.680Z,1.83
2018-11-05T02:22:54.213Z,2.97
2018-11-05T02:25:22.787Z,1.37
2018-11-05T02:27:51.336Z,1.97
2018-11-05T02:30:19.938Z,1.33
2018-11-05T02:32:48.580Z,1.27
2018-11-05T02:35:17.790Z,1.57
2018-11-05T02:37:47.000Z,1.97
2018-11-05T02:40:16.923Z,1.23
2018-11-05T02:42:45.810Z,1.63
2018-11-05T02:45:15.458Z,1.97
2018-11-05T02:47:43.998Z,1.60
2018-11-05T02:50:13.291Z,0.97
2018-11-05T02:52:42.825Z,1.50
2018-11-05T02:55:11.383Z,1.50
2018-11-05T02:57:39.976Z,0.90
2018-11-05T03:00:12.185Z,1.40
2018-11-05T03:02:41.050Z,1.77
2018-11-05T03:05:11.788Z,1.33
2018-11-05T03:07:40.410Z,1.40
2018-11-05T03:10:10.524Z,0.70
2018-11-05T03:12:39.630Z,2.10
2018-11-05T03:15:09.339Z,1.80
2018-11-05T03:17:38.132Z,1.73
2018-11-05T03:20:07.936Z,1.53
2018-11-05T03:22:36.733Z,1.93
2018-11-05T03:25:05.642Z,2.30
2018-11-05T03:27:34.149Z,1.10
2018-11-05T03:30:02.744Z,1.27
2018-11-05T03:32:31.325Z,0.67
2018-11-05T03:34:59.877Z,1.80
2018-11-05T03:37:28.863Z,2.00
2018-11-05T03:39:57.396Z,1.43
2018-11-05T03:42:25.935Z,0.70
2018-11-05T03:44:54.456Z,1.70
2018-11-05T03:47:22.997Z,1.87
2018-11-05T03:49:51.536Z,1.33
2018-11-05T03:52:20.062Z,1.07
2018-11-05T03:54:48.597Z,1.70
2018-11-05T03:57:17.131Z,1.50
2018-11-05T03:59:45.660Z,1.47
2018-11-05T04:02:14.202Z,1.57
2018-11-05T04:04:42.906Z,0.83
2018-11-05T04:07:11.426Z,1.90
2018-11-05T04:09:39.950Z,2.00
2018-11-05T04:12:08.481Z,1.63
2018-11-05T04:14:37.004Z,1.43
2018-11-05T04:17:06.058Z,1.80
2018-11-05T04:19:34.597Z,2.00
2018-11-05T04:22:03.148Z,1.77
2018-11-05T04:24:31.676Z,1.27
2018-11-05T04:27:00.204Z,1.03
2018-11-05T04:29:28.725Z,1.50
2018-11-05T04:31:57.325Z,1.20
2018-11-05T04:34:25.869Z,1.10
2018-11-05T04:36:54.439Z,1.50
2018-11-05T04:39:22.975Z,1.60
2018-11-05T04:41:51.526Z,1.20
2018-11-05T04:44:20.012Z,1.90
2018-11-05T04:46:48.598Z,2.03
2018-11-05T04:49:17.121Z,2.63
2018-11-05T04:51:45.800Z,1.70
2018-11-05T04:54:14.382Z,2.00
2018-11-05T04:56:42.927Z,1.90
2018-11-05T04:59:11.468Z,2.27
2018-11-05T05:01:40.015Z,1.67
2018-11-05T05:04:08.551Z,1.43
2018-11-05T05:06:37.139Z,1.37
2018-11-05T05:09:08.619Z,2.17
2018-11-05T05:11:37.307Z,1.33
2018-11-05T05:14:06.841Z,0.70
2018-11-05T05:16:35.480Z,1.87
2018-11-05T05:19:04.041Z,1.33
2018-11-05T05:21:32.631Z,1.53
2018-11-05T05:24:01.714Z,1.27
2018-11-05T05:26:30.257Z,1.53
2018-11-05T05:28:58.772Z,1.30
2018-11-05T05:31:27.268Z,1.37
2018-11-05T05:33:55.809Z,1.67
2018-11-05T05:36:24.355Z,1.50
2018-11-05T05:38:52.852Z,1.60
2018-11-05T05:41:21.571Z,1.60
2018-11-05T05:43:50.017Z,1.53
2018-11-05T05:46:18.588Z,1.90
2018-11-05T05:48:47.116Z,1.27
2018-11-05T05:51:15.690Z,1.67
2018-11-05T05:53:44.249Z,1.50
2018-11-05T05:56:12.751Z,1.27
2018-11-05T05:58:41.287Z,1.43
2018-11-05T06:01:09.813Z,2.37
2018-11-05T06:03:38.345Z,1.37
2018-11-05T06:06:07.232Z,1.47
2018-11-05T06:08:35.741Z,2.20
2018-11-05T06:11:04.300Z,1.67
2018-11-05T06:13:32.849Z,2.40
2018-11-05T06:16:01.489Z,1.10
2018-11-05T06:18:29.974Z,2.13
2018-11-05T06:20:58.554Z,1.20
2018-11-05T06:23:27.099Z,1.53
2018-11-05T06:25:55.702Z,1.10
2018-11-05T06:28:24.347Z,1.10
2018-11-05T06:30:52.848Z,1.63
2018-11-05T06:33:21.470Z,1.50
2018-11-05T06:35:50.032Z,1.97
2018-11-05T06:38:18.562Z,1.47
2018-11-05T06:40:47.111Z,1.10
2018-11-05T06:43:15.664Z,1.33
2018-11-05T06:45:44.213Z,0.97
2018-11-05T06:48:12.789Z,1.50
2018-11-05T06:50:41.321Z,1.20
2018-11-05T06:53:09.976Z,2.37
2018-11-05T06:55:38.515Z,1.00
2018-11-05T06:58:07.080Z,1.10
2018-11-05T07:00:35.625Z,1.43
2018-11-05T07:03:04.204Z,1.63
2018-11-05T07:05:32.818Z,0.80
2018-11-05T07:08:01.354Z,1.97
2018-11-05T07:10:29.929Z,1.17
2018-11-05T07:12:58.484Z,1.57
2018-11-05T07:15:27.110Z,0.80
2018-11-05T07:17:55.662Z,0.97
2018-11-05T07:20:24.245Z,1.20
2018-11-05T07:22:52.966Z,0.60
2018-11-05T07:25:21.935Z,1.93
2018-11-05T07:27:50.512Z,0.83
2018-11-05T07:30:21.268Z,0.67
2018-11-05T07:32:51.070Z,0.20
2018-11-05T07:35:19.629Z,0.73
2018-11-05T07:37:48.208Z,0.40
2018-11-05T07:40:17.770Z,0.23
2018-11-05T07:42:46.411Z,0.00
2018-11-05T07:45:19.006Z,0.00
2018-11-05T07:47:48.042Z,0.00
2018-11-05T07:50:17.564Z,0.00
2018-11-05T07:52:46.172Z,0.00
2018-11-05T07:55:15.939Z,0.00
2018-11-05T07:57:45.395Z,0.00
2018-11-05T08:00:20.307Z,0.00
2018-11-05T08:02:50.200Z,0.00
2018-11-05T08:05:20.018Z,0.00
2018-11-05T08:07:49.035Z,0.00
2018-11-05T08:10:17.641Z,0.00
2018-11-05T08:12:46.362Z,0.00
2018-11-05T08:15:17.129Z,0.00
2018-11-05T08:17:46.710Z,0.00
2018-11-05T08:20:15.270Z,0.03
2018-11-05T08:22:43.787Z,0.00
2018-11-05T08:25:13.100Z,0.00
2018-11-05T08:27:41.643Z,0.00
2018-11-05T08:30:13.236Z,0.00
2018-11-05T08:32:42.019Z,0.00
2018-11-05T08:35:11.490Z,0.10
2018-11-05T08:37:40.460Z,0.00
2018-11-05T08:40:12.101Z,0.00
2018-11-05T08:42:41.325Z,0.00
2018-11-05T08:45:10.498Z,0.00
2018-11-05T08:47:39.059Z,0.00
2018-11-05T08:50:09.369Z,0.00
2018-11-05T08:52:37.865Z,0.00
2018-11-05T08:55:08.320Z,0.00
2018-11-05T08:57:36.863Z,0.00
2018-11-05T09:00:07.938Z,0.00
2018-11-05T09:02:36.456Z,0.00
2018-11-05T09:05:05.570Z,0.00
2018-11-05T09:07:34.080Z,0.00
2018-11-05T09:10:02.732Z,0.00
2018-11-05T09:12:31.123Z,0.00
2018-11-05T09:14:59.622Z,0.00
2018-11-05T09:17:28.164Z,0.00
2018-11-05T09:19:56.729Z,0.00
2018-11-05T09:22:25.234Z,0.00
2018-11-05T09:24:53.768Z,0.00
2018-11-05T09:27:22.369Z,0.00
2018-11-05T09:29:50.931Z,0.00
2018-11-05T09:32:19.578Z,0.00
2018-11-05T09:34:48.163Z,0.00
2018-11-05T09:37:16.682Z,0.00
2018-11-05T09:39:45.220Z,0.00
2018-11-05T09:42:13.738Z,0.00
2018-11-05T09:44:42.244Z,0.00
2018-11-05T09:47:10.779Z,0.00
2018-11-05T09:49:39.368Z,0.00
2018-11-05T09:52:07.860Z,0.00
2018-11-05T09:54:36.356Z,0.00
2018-11-05T09:57:04.943Z,0.00
2018-11-05T09:59:33.509Z,0.00
2018-11-05T10:02:02.037Z,0.00
2018-11-05T10:04:30.758Z,0.00
2018-11-05T10:06:59.122Z,0.00
2018-11-05T10:09:27.685Z,0.00
2018-11-05T10:11:56.186Z,0.00
2018-11-05T10:14:24.698Z,0.00
2018-11-05T10:16:53.236Z,0.00
2018-11-05T10:19:21.810Z,0.00
2018-11-05T10:21:50.353Z,0.00
2018-11-05T10:24:18.908Z,0.10
2018-11-05T10:26:47.478Z,0.00
2018-11-05T10:29:16.097Z,0.00
2018-11-05T10:31:44.618Z,0.00
2018-11-05T10:34:13.160Z,0.00
2018-11-05T10:36:41.684Z,0.00
2018-11-05T10:39:10.461Z,0.10
2018-11-05T10:41:38.963Z,0.00
2018-11-05T10:44:07.503Z,0.00
2018-11-05T10:46:36.021Z,0.00
2018-11-05T10:49:04.561Z,0.00
2018-11-05T10:51:33.059Z,0.00
2018-11-05T10:54:01.625Z,0.00
2018-11-05T10:56:30.140Z,0.00
2018-11-05T10:58:58.657Z,0.00
2018-11-05T11:01:32.461Z,0.00
2018-11-05T11:04:06.470Z,0.03
2018-11-05T11:06:34.840Z,0.10
2018-11-05T11:09:03.461Z,0.10
2018-11-05T11:11:31.972Z,0.00
2018-11-05T11:14:00.492Z,0.00
2018-11-05T11:16:29.019Z,0.00
2018-11-05T11:18:57.518Z,0.10
2018-11-05T11:21:26.059Z,0.00
2018-11-05T11:23:54.577Z,0.10
2018-11-05T11:26:23.135Z,0.00
2018-11-05T11:28:51.713Z,0.00
2018-11-05T11:31:20.205Z,0.00
2018-11-05T11:33:48.796Z,0.00
2018-11-05T11:36:17.284Z,0.00
2018-11-05T11:38:45.753Z,0.10
2018-11-05T11:41:14.301Z,0.00
2018-11-05T11:43:42.863Z,0.00
2018-11-05T11:46:11.389Z,0.00
2018-11-05T11:48:39.909Z,0.00
2018-11-05T11:51:08.432Z,0.00
2018-11-05T11:53:36.982Z,0.00
2018-11-05T11:56:05.580Z,0.00
2018-11-05T11:58:34.094Z,0.00
2018-11-05T12:01:02.655Z,0.00
2018-11-05T12:03:31.270Z,0.00
2018-11-05T12:05:59.760Z,0.00
2018-11-05T12:08:28.300Z,0.00
2018-11-05T12:10:56.820Z,0.00
2018-11-05T12:13:25.330Z,0.00
2018-11-05T12:15:53.828Z,0.00
2018-11-05T12:18:22.349Z,0.00
2018-11-05T12:20:50.874Z,0.00
2018-11-05T12:23:19.429Z,0.00
2018-11-05T12:25:47.920Z,0.00
2018-11-05T12:28:16.425Z,0.00
2018-11-05T12:30:44.931Z,0.00
2018-11-05T12:33:13.467Z,0.00
2018-11-05T12:35:41.977Z,0.00
2018-11-05T12:38:10.507Z,0.00
2018-11-05T12:40:39.092Z,0.00
2018-11-05T12:43:07.637Z,0.00
2018-11-05T12:45:36.851Z,0.00
2018-11-05T12:48:05.635Z,0.00
2018-11-05T12:50:34.217Z,0.00
2018-11-05T12:53:02.712Z,0.00
2018-11-05T12:55:31.222Z,0.00
2018-11-05T12:57:59.761Z,0.00
2018-11-05T13:00:28.262Z,0.00
2018-11-05T13:02:57.964Z,0.00
2018-11-05T13:05:27.358Z,0.00
2018-11-05T13:07:55.886Z,0.00
2018-11-05T13:10:24.624Z,0.00
2018-11-05T13:12:53.410Z,0.00
2018-11-05T13:15:21.995Z,0.00
2018-11-05T13:17:50.444Z,0.10
2018-11-05T13:20:20.354Z,0.00
2018-11-05T13:22:49.011Z,0.10
2018-11-05T13:25:17.479Z,0.00
2018-11-05T13:27:47.252Z,0.10
2018-11-05T13:30:16.217Z,0.00
2018-11-05T13:32:45.142Z,0.00
2018-11-05T13:35:15.052Z,0.00
2018-11-05T13:37:44.237Z,0.00
2018-11-05T13:40:14.434Z,0.00
2018-11-05T13:42:43.153Z,0.00
2018-11-05T13:45:12.974Z,0.00
2018-11-05T13:47:42.117Z,0.00
2018-11-05T13:50:11.265Z,0.00
2018-11-05T13:52:39.954Z,0.00
2018-11-05T13:55:10.386Z,0.00
2018-11-05T13:57:39.021Z,0.00
2018-11-05T14:00:09.464Z,0.00
2018-11-05T14:02:38.092Z,0.10
2018-11-05T14:05:06.724Z,0.00
2018-11-05T14:07:35.578Z,0.00
2018-11-05T14:10:04.629Z,0.00
2018-11-05T14:12:33.161Z,0.00
2018-11-05T14:15:01.677Z,0.00
2018-11-05T14:17:30.195Z,0.13
2018-11-05T14:19:58.737Z,0.00
2018-11-05T14:22:27.236Z,0.00
2018-11-05T14:24:55.777Z,0.00
2018-11-05T14:27:24.547Z,0.00
2018-11-05T14:29:53.266Z,0.00
2018-11-05T14:32:21.541Z,0.00
2018-11-05T14:34:49.945Z,0.00
2018-11-05T14:37:18.572Z,0.00
2018-11-05T14:39:47.078Z,0.00
2018-11-05T14:42:15.626Z,0.00
2018-11-05T14:44:44.181Z,0.03
2018-11-05T14:47:12.715Z,0.00
2018-11-05T14:49:41.232Z,0.00
2018-11-05T14:52:09.752Z,0.10
2018-11-05T14:54:38.266Z,0.00
2018-11-05T14:57:07.017Z,0.00
2018-11-05T14:59:35.515Z,0.00
2018-11-05T15:02:09.321Z,0.00
2018-11-05T15:04:37.872Z,0.00
2018-11-05T15:07:06.501Z,0.00
2018-11-05T15:09:35.068Z,0.00
2018-11-05T15:12:03.609Z,0.00
2018-11-05T15:14:32.219Z,0.00
2018-11-05T15:17:00.711Z,0.00
2018-11-05T15:19:29.691Z,0.00
2018-11-05T15:21:57.859Z,0.00
2018-11-05T15:24:26.397Z,0.00
2018-11-05T15:26:55.140Z,0.00
2018-11-05T15:29:23.457Z,0.00
2018-11-05T15:31:51.974Z,0.00
2018-11-05T15:34:20.505Z,0.00
2018-11-05T15:36:49.022Z,0.00
2018-11-05T15:39:17.553Z,0.00
2018-11-05T15:41:46.067Z,0.00
2018-11-05T15:44:14.568Z,0.00
2018-11-05T15:46:43.186Z,0.00
2018-11-05T15:49:11.897Z,0.00
2018-11-05T15:51:40.568Z,0.00
2018-11-05T15:54:08.987Z,0.00
2018-11-05T15:56:37.433Z,0.00
2018-11-05T15:59:06.101Z,0.00
2018-11-05T16:01:34.624Z,0.00
2018-11-05T16:04:03.138Z,0.00
2018-11-05T16:06:31.648Z,0.00
2018-11-05T16:09:00.192Z,0.00
2018-11-05T16:11:28.712Z,0.10
2018-11-05T16:13:57.197Z,0.00
2018-11-05T16:16:25.756Z,0.00
2018-11-05T16:18:54.308Z,0.30
2018-11-05T16:21:22.798Z,0.00
2018-11-05T16:23:51.412Z,0.20
2018-11-05T16:26:19.917Z,0.00
2018-11-05T16:28:48.524Z,0.10
2018-11-05T16:31:17.031Z,0.10
2018-11-05T16:33:45.541Z,0.00
2018-11-05T16:36:14.949Z,0.00
2018-11-05T16:38:43.466Z,0.00
2018-11-05T16:41:11.999Z,0.00
2018-11-05T16:43:40.531Z,0.00
2018-11-05T16:46:09.411Z,0.00
2018-11-05T16:48:37.941Z,0.07
2018-11-05T16:51:06.634Z,0.00
2018-11-05T16:53:35.180Z,0.00
2018-11-05T16:56:03.726Z,0.10
2018-11-05T16:58:32.245Z,0.10
2018-11-05T17:01:00.979Z,0.00
2018-11-05T17:03:29.387Z,0.10
2018-11-05T17:05:57.907Z,0.00
2018-11-05T17:08:26.447Z,0.10
2018-11-05T17:10:54.991Z,0.00
2018-11-05T17:13:23.663Z,0.00
2018-11-05T17:15:52.095Z,0.00
2018-11-05T17:18:20.616Z,0.00
2018-11-05T17:20:49.235Z,0.00
2018-11-05T17:23:17.761Z,0.00
2018-11-05T17:25:46.390Z,0.00
2018-11-05T17:28:14.918Z,0.00
2018-11-05T17:30:43.419Z,0.00
2018-11-05T17:33:11.930Z,0.00
2018-11-05T17:35:40.472Z,0.00
2018-11-05T17:38:09.078Z,0.00
2018-11-05T17:40:37.610Z,0.00
2018-11-05T17:43:06.372Z,0.00
2018-11-05T17:45:34.912Z,0.00
2018-11-05T17:48:03.500Z,0.00
2018-11-05T17:50:32.133Z,0.00
2018-11-05T17:53:00.697Z,0.00
2018-11-05T17:55:29.203Z,0.00
2018-11-05T17:57:58.108Z,0.00
2018-11-05T18:00:26.642Z,0.00
2018-11-05T18:02:55.164Z,0.00
2018-11-05T18:05:23.716Z,0.00
2018-11-05T18:07:52.316Z,0.00
2018-11-05T18:10:20.842Z,0.00
2018-11-05T18:12:49.358Z,0.00
2018-11-05T18:15:17.933Z,0.00
2018-11-05T18:17:47.071Z,0.00
2018-11-05T18:20:16.464Z,0.00
2018-11-05T18:22:44.991Z,0.00
2018-11-05T18:25:15.107Z,0.00
2018-11-05T18:27:43.991Z,0.00
2018-11-05T18:30:13.271Z,0.00
2018-11-05T18:32:41.855Z,0.00
2018-11-05T18:35:11.670Z,0.00
2018-11-05T18:37:40.372Z,0.03
2018-11-05T18:40:10.903Z,0.10
2018-11-05T18:42:39.957Z,0.00
2018-11-05T18:45:08.893Z,0.00
2018-11-05T18:47:37.471Z,0.00
2018-11-05T18:50:08.153Z,0.10
2018-11-05T18:52:37.060Z,0.20
2018-11-05T18:55:07.545Z,0.30
2018-11-05T18:57:36.583Z,0.03
2018-11-05T19:00:08.525Z,0.00
2018-11-05T19:02:37.103Z,0.00
2018-11-05T19:05:05.632Z,0.00
2018-11-05T19:07:34.121Z,0.00
2018-11-05T19:10:02.688Z,0.00
2018-11-05T19:12:31.211Z,0.00
2018-11-05T19:14:59.772Z,0.00
2018-11-05T19:17:28.299Z,0.10
2018-11-05T19:19:56.802Z,0.00
2018-11-05T19:22:25.424Z,0.00
2018-11-05T19:24:53.942Z,0.00
2018-11-05T19:27:22.485Z,0.00
2018-11-05T19:29:51.062Z,0.00
2018-11-05T19:32:19.632Z,0.00
2018-11-05T19:34:48.270Z,0.00
2018-11-05T19:37:16.812Z,0.00
2018-11-05T19:39:45.360Z,0.00
2018-11-05T19:42:13.941Z,0.00
2018-11-05T19:44:42.474Z,0.00
2018-11-05T19:47:11.080Z,0.00
2018-11-05T19:49:39.619Z,0.00
2018-11-05T19:52:08.156Z,0.00
2018-11-05T19:54:36.667Z,0.00
2018-11-05T19:57:05.427Z,0.00
2018-11-05T19:59:34.021Z,0.00
2018-11-05T20:02:02.573Z,0.00
2018-11-05T20:04:31.085Z,0.00
2018-11-05T20:06:59.628Z,0.07
2018-11-05T20:09:28.133Z,0.10
2018-11-05T20:11:56.631Z,0.00
2018-11-05T20:14:25.175Z,0.00
2018-11-05T20:16:53.725Z,0.00
2018-11-05T20:19:22.358Z,0.00
2018-11-05T20:21:50.808Z,0.00
2018-11-05T20:24:19.351Z,0.00
2018-11-05T20:26:47.892Z,0.00
2018-11-05T20:29:16.500Z,0.00
2018-11-05T20:31:45.375Z,0.00
2018-11-05T20:34:13.836Z,0.00
2018-11-05T20:36:42.126Z,0.00
2018-11-05T20:39:11.423Z,0.00
2018-11-05T20:41:40.094Z,0.00
2018-11-05T20:44:08.687Z,0.00
2018-11-05T20:46:37.260Z,0.00
2018-11-05T20:49:05.814Z,0.00
2018-11-05T20:51:34.300Z,0.00
2018-11-05T20:54:02.921Z,0.00
2018-11-05T20:56:31.358Z,0.00
2018-11-05T20:58:59.890Z,0.00
2018-11-05T21:01:28.400Z,0.00
2018-11-05T21:03:56.917Z,0.00
2018-11-05T21:06:25.688Z,0.00
2018-11-05T21:08:54.229Z,0.00
2018-11-05T21:11:22.727Z,0.10
2018-11-05T21:13:51.216Z,0.10
2018-11-05T21:16:19.813Z,0.00
2018-11-05T21:18:48.360Z,0.00
2018-11-05T21:21:16.986Z,0.00
2018-11-05T21:23:45.395Z,0.10
2018-11-05T21:26:13.923Z,0.10
2018-11-05T21:28:42.421Z,0.00
2018-11-05T21:31:10.937Z,0.00
2018-11-05T21:33:39.438Z,0.00
2018-11-05T21:36:07.935Z,0.00
2018-11-05T21:38:36.589Z,0.00
2018-11-05T21:41:05.483Z,0.00
2018-11-05T21:43:33.987Z,0.00
2018-11-05T21:46:02.478Z,0.00
2018-11-05T21:48:31.002Z,0.00
2018-11-05T21:50:59.506Z,0.00
2018-11-05T21:53:28.000Z,0.03
2018-11-05T21:55:56.551Z,0.00
2018-11-05T21:58:25.133Z,0.00
2018-11-05T22:00:53.668Z,0.00
2018-11-05T22:03:22.200Z,0.00
2018-11-05T22:05:50.694Z,0.00
2018-11-05T22:08:19.225Z,0.00
2018-11-05T22:10:47.728Z,0.00
2018-11-05T22:13:16.260Z,0.00
2018-11-05T22:15:46.877Z,0.00
2018-11-05T22:18:16.362Z,0.00
2018-11-05T22:20:44.856Z,0.00
2018-11-05T22:23:13.486Z,0.00
2018-11-05T22:25:41.994Z,0.00
2018-11-05T22:28:10.565Z,0.00
2018-11-05T22:30:39.090Z,0.00
2018-11-05T22:33:07.616Z,0.00
2018-11-05T22:35:36.174Z,0.00
2018-11-05T22:38:05.006Z,0.00
2018-11-05T22:40:33.510Z,0.00
2018-11-05T22:43:02.035Z,0.00
2018-11-05T22:45:30.544Z,0.00
2018-11-05T22:47:59.078Z,0.00
2018-11-05T22:50:27.609Z,0.00
2018-11-05T22:52:56.154Z,0.00
2018-11-05T22:55:24.865Z,0.00
2018-11-05T22:57:53.416Z,0.00
2018-11-05T23:00:27.338Z,0.00
2018-11-05T23:03:01.137Z,0.00
2018-11-05T23:05:29.662Z,0.00
2018-11-05T23:07:58.147Z,0.00
2018-11-05T23:10:26.974Z,0.00
2018-11-05T23:12:55.587Z,0.00
2018-11-05T23:15:24.090Z,0.00
2018-11-05T23:17:52.714Z,0.00
2018-11-05T23:20:21.242Z,0.03
2018-11-05T23:22:49.724Z,0.00
2018-11-05T23:25:18.285Z,0.00
2018-11-05T23:27:46.782Z,0.00
2018-11-05T23:30:15.293Z,0.00
2018-11-05T23:32:43.847Z,0.00
2018-11-05T23:35:12.535Z,0.00
2018-11-05T23:37:41.863Z,0.00
2018-11-05T23:40:10.503Z,0.00
2018-11-05T23:42:39.721Z,0.00
2018-11-05T23:45:10.591Z,0.00
2018-11-05T23:47:39.125Z,0.00
2018-11-05T23:50:08.128Z,0.00
2018-11-05T23:52:36.701Z,0.00
2018-11-05T23:55:05.944Z,0.00
2018-11-05T23:57:34.440Z,0.10
